EJU52HC EHAM-LKPR
Flight info
| Callsign | EJU52HC |
|---|---|
| Flight time | 1h 9m |
| Altitude | 37000 |
| Route | ARNEM L620 HMM DCT NOMKA DCT SUVUT L620 PIKIB T620 LALUK DCT GOLOP |
| Aircraft | A320/M-SDE2E3FGHIJ1RWXYZ/LB1 |
Departure
| Time | 2026-05-07 17:56 |
|---|---|
| Airport | Amsterdam Airport Schiphol (EHAM) |
Arrival
| Time | 2026-05-07 19:06 |
|---|---|
| Airport | Václav Havel Airport Prague (LKPR) |
| Time | Latitude | Longitude | Altitude | Speed | Heading |
|---|---|---|---|---|---|
| 2026-05-07 17:23 | 52.31066 | 4.75572 | -1 ft | 0 kts | 148° |
| 2026-05-07 17:43 | 52.31087 | 4.75552 | -1 ft | 4 kts | 150° |
| 2026-05-07 17:43 | 52.31107 | 4.75530 | -1 ft | 4 kts | 110° |
| 2026-05-07 17:44 | 52.31104 | 4.75502 | -1 ft | 4 kts | 59° |
| 2026-05-07 17:44 | 52.31092 | 4.75471 | -1 ft | 0 kts | 58° |
| 2026-05-07 17:48 | 52.31099 | 4.75480 | -1 ft | 7 kts | 38° |
| 2026-05-07 17:49 | 52.31175 | 4.75475 | -1 ft | 12 kts | 351° |
| 2026-05-07 17:49 | 52.31258 | 4.75456 | -1 ft | 12 kts | 356° |
| 2026-05-07 17:49 | 52.31341 | 4.75450 | -1 ft | 12 kts | 357° |
| 2026-05-07 17:49 | 52.31429 | 4.75442 | -1 ft | 13 kts | 356° |
| 2026-05-07 17:50 | 52.31507 | 4.75381 | -1 ft | 13 kts | 283° |
| 2026-05-07 17:50 | 52.31504 | 4.75237 | -1 ft | 14 kts | 266° |
| 2026-05-07 17:50 | 52.31497 | 4.75042 | -1 ft | 20 kts | 266° |
| 2026-05-07 17:50 | 52.31490 | 4.74825 | -1 ft | 18 kts | 267° |
| 2026-05-07 17:51 | 52.31484 | 4.74633 | -1 ft | 16 kts | 266° |
| 2026-05-07 17:51 | 52.31478 | 4.74462 | -1 ft | 15 kts | 267° |
| 2026-05-07 17:51 | 52.31471 | 4.74265 | -1 ft | 19 kts | 265° |
| 2026-05-07 17:51 | 52.31378 | 4.74138 | -1 ft | 22 kts | 184° |
| 2026-05-07 17:52 | 52.31202 | 4.74123 | -1 ft | 26 kts | 183° |
| 2026-05-07 17:52 | 52.31015 | 4.74106 | -1 ft | 27 kts | 183° |
| 2026-05-07 17:52 | 52.30821 | 4.74089 | -1 ft | 28 kts | 182° |
| 2026-05-07 17:52 | 52.30626 | 4.74074 | -1 ft | 25 kts | 184° |
| 2026-05-07 17:53 | 52.30457 | 4.74057 | -1 ft | 23 kts | 183° |
| 2026-05-07 17:53 | 52.30346 | 4.74029 | -1 ft | 12 kts | 204° |
| 2026-05-07 17:53 | 52.30271 | 4.73969 | -1 ft | 13 kts | 210° |
| 2026-05-07 17:53 | 52.30191 | 4.73859 | -2 ft | 20 kts | 242° |
| 2026-05-07 17:54 | 52.30249 | 4.73743 | -4 ft | 11 kts | 2° |
| 2026-05-07 17:54 | 52.30254 | 4.73744 | -4 ft | 0 kts | 2° |
| 2026-05-07 17:55 | 52.30263 | 4.73744 | -4 ft | 7 kts | 2° |
| 2026-05-07 17:55 | 52.30586 | 4.73773 | -3 ft | 88 kts | 3° |
| 2026-05-07 17:55 | 52.31415 | 4.73847 | -2 ft | 144 kts | 4° |
| 2026-05-07 17:56 | 52.32493 | 4.73997 | 306 ft | 163 kts | 6° |
| 2026-05-07 17:56 | 52.33616 | 4.74317 | 983 ft | 161 kts | 23° |
| 2026-05-07 17:56 | 52.34673 | 4.74983 | 1534 ft | 174 kts | 23° |
| 2026-05-07 17:56 | 52.35872 | 4.75734 | 1868 ft | 195 kts | 22° |
| 2026-05-07 17:57 | 52.37202 | 4.76573 | 2208 ft | 214 kts | 25° |
| 2026-05-07 17:57 | 52.38088 | 4.77448 | 2465 ft | 226 kts | 42° |
| 2026-05-07 17:57 | 52.39599 | 4.79963 | 3214 ft | 246 kts | 47° |
| 2026-05-07 17:57 | 52.40810 | 4.82020 | 3937 ft | 255 kts | 50° |
| 2026-05-07 17:58 | 52.41809 | 4.84448 | 4716 ft | 261 kts | 66° |
| 2026-05-07 17:58 | 52.42334 | 4.87319 | 5484 ft | 267 kts | 85° |
| 2026-05-07 17:58 | 52.42391 | 4.90377 | 6267 ft | 271 kts | 92° |
| 2026-05-07 17:58 | 52.42392 | 4.93494 | 7071 ft | 275 kts | 92° |
| 2026-05-07 17:59 | 52.42123 | 4.96603 | 7843 ft | 277 kts | 109° |
| 2026-05-07 17:59 | 52.41288 | 4.99448 | 8613 ft | 280 kts | 127° |
| 2026-05-07 17:59 | 52.39948 | 5.01757 | 9371 ft | 282 kts | 145° |
| 2026-05-07 17:59 | 52.38328 | 5.03627 | 10110 ft | 287 kts | 146° |
| 2026-05-07 18:00 | 52.36651 | 5.05545 | 10507 ft | 305 kts | 146° |
| 2026-05-07 18:00 | 52.34930 | 5.07789 | 10740 ft | 327 kts | 134° |
| 2026-05-07 18:00 | 52.33666 | 5.10944 | 11271 ft | 339 kts | 113° |
| 2026-05-07 18:00 | 52.32910 | 5.14619 | 11979 ft | 342 kts | 108° |
| 2026-05-07 18:01 | 52.32208 | 5.18357 | 12674 ft | 347 kts | 108° |
| 2026-05-07 18:01 | 52.31518 | 5.22161 | 13345 ft | 351 kts | 107° |
| 2026-05-07 18:01 | 52.30829 | 5.26016 | 14027 ft | 355 kts | 107° |
| 2026-05-07 18:01 | 52.30135 | 5.29899 | 14649 ft | 357 kts | 107° |
| 2026-05-07 18:02 | 52.28722 | 5.37711 | 15819 ft | 365 kts | 107° |
| 2026-05-07 18:02 | 52.27983 | 5.41738 | 16451 ft | 367 kts | 107° |
| 2026-05-07 18:02 | 52.27247 | 5.45743 | 17074 ft | 370 kts | 107° |
| 2026-05-07 18:03 | 52.26502 | 5.49783 | 17654 ft | 373 kts | 107° |
| 2026-05-07 18:03 | 52.25751 | 5.53857 | 18247 ft | 376 kts | 107° |
| 2026-05-07 18:03 | 52.24996 | 5.57961 | 18778 ft | 379 kts | 107° |
| 2026-05-07 18:03 | 52.24232 | 5.62092 | 19300 ft | 382 kts | 108° |
| 2026-05-07 18:04 | 52.23454 | 5.66259 | 19790 ft | 385 kts | 108° |
| 2026-05-07 18:04 | 52.22672 | 5.70441 | 20292 ft | 388 kts | 108° |
| 2026-05-07 18:04 | 52.21883 | 5.74662 | 20791 ft | 390 kts | 108° |
| 2026-05-07 18:04 | 52.21088 | 5.78912 | 21273 ft | 393 kts | 108° |
| 2026-05-07 18:05 | 52.20287 | 5.83189 | 21745 ft | 396 kts | 108° |
| 2026-05-07 18:05 | 52.19479 | 5.87495 | 22214 ft | 399 kts | 108° |
| 2026-05-07 18:05 | 52.18665 | 5.91832 | 22678 ft | 402 kts | 108° |
| 2026-05-07 18:05 | 52.17842 | 5.96198 | 23121 ft | 405 kts | 108° |
| 2026-05-07 18:06 | 52.17011 | 6.00595 | 23563 ft | 408 kts | 108° |
| 2026-05-07 18:06 | 52.16171 | 6.05021 | 23940 ft | 410 kts | 108° |
| 2026-05-07 18:06 | 52.15327 | 6.09470 | 24314 ft | 413 kts | 108° |
| 2026-05-07 18:06 | 52.14475 | 6.13948 | 24685 ft | 415 kts | 108° |
| 2026-05-07 18:07 | 52.13617 | 6.18443 | 25053 ft | 417 kts | 108° |
| 2026-05-07 18:07 | 52.12753 | 6.22955 | 25413 ft | 419 kts | 108° |
| 2026-05-07 18:07 | 52.11881 | 6.27493 | 25778 ft | 421 kts | 108° |
| 2026-05-07 18:07 | 52.11003 | 6.32046 | 26103 ft | 424 kts | 108° |
| 2026-05-07 18:08 | 52.10129 | 6.36573 | 26424 ft | 426 kts | 109° |
| 2026-05-07 18:08 | 52.09237 | 6.41188 | 26758 ft | 429 kts | 108° |
| 2026-05-07 18:08 | 52.08339 | 6.45822 | 27096 ft | 431 kts | 109° |
| 2026-05-07 18:08 | 52.07435 | 6.50474 | 27435 ft | 433 kts | 109° |
| 2026-05-07 18:09 | 52.06526 | 6.55151 | 27769 ft | 435 kts | 109° |
| 2026-05-07 18:09 | 52.05613 | 6.59848 | 28092 ft | 437 kts | 109° |
| 2026-05-07 18:09 | 52.04690 | 6.64563 | 28434 ft | 439 kts | 109° |
| 2026-05-07 18:09 | 52.03758 | 6.69299 | 28761 ft | 441 kts | 109° |
| 2026-05-07 18:10 | 52.02823 | 6.74047 | 29091 ft | 443 kts | 109° |
| 2026-05-07 18:10 | 52.01906 | 6.78835 | 29404 ft | 445 kts | 107° |
| 2026-05-07 18:10 | 52.01075 | 6.83695 | 29711 ft | 448 kts | 106° |
| 2026-05-07 18:10 | 52.00312 | 6.88601 | 30007 ft | 450 kts | 105° |
| 2026-05-07 18:11 | 51.99579 | 6.93540 | 30276 ft | 451 kts | 104° |
| 2026-05-07 18:11 | 51.99094 | 6.96823 | 30430 ft | 452 kts | 104° |
| 2026-05-07 18:11 | 51.98098 | 7.03471 | 30766 ft | 454 kts | 105° |
| 2026-05-07 18:11 | 51.97326 | 7.08449 | 31011 ft | 456 kts | 105° |
| 2026-05-07 18:12 | 51.96516 | 7.13418 | 31314 ft | 455 kts | 107° |
| 2026-05-07 18:12 | 51.95641 | 7.18339 | 31659 ft | 454 kts | 108° |
| 2026-05-07 18:12 | 51.94719 | 7.23221 | 32004 ft | 453 kts | 108° |
| 2026-05-07 18:12 | 51.93783 | 7.28068 | 32369 ft | 452 kts | 108° |
| 2026-05-07 18:13 | 51.92842 | 7.32938 | 32706 ft | 451 kts | 108° |
| 2026-05-07 18:13 | 51.91913 | 7.37780 | 33042 ft | 450 kts | 108° |
| 2026-05-07 18:13 | 51.90999 | 7.42615 | 33381 ft | 449 kts | 108° |
| 2026-05-07 18:13 | 51.90093 | 7.47440 | 33724 ft | 448 kts | 108° |
| 2026-05-07 18:14 | 51.89190 | 7.52261 | 34055 ft | 447 kts | 108° |
| 2026-05-07 18:14 | 51.88288 | 7.57070 | 34338 ft | 446 kts | 108° |
| 2026-05-07 18:14 | 51.87383 | 7.61869 | 34584 ft | 446 kts | 108° |
| 2026-05-07 18:14 | 51.86472 | 7.66668 | 34805 ft | 446 kts | 108° |
| 2026-05-07 18:15 | 51.85563 | 7.71475 | 35021 ft | 447 kts | 107° |
| 2026-05-07 18:15 | 51.84761 | 7.76333 | 35231 ft | 448 kts | 104° |
| 2026-05-07 18:15 | 51.84082 | 7.81244 | 35417 ft | 448 kts | 102° |
| 2026-05-07 18:15 | 51.83473 | 7.86186 | 35615 ft | 449 kts | 101° |
| 2026-05-07 18:16 | 51.82883 | 7.91145 | 35801 ft | 449 kts | 102° |
| 2026-05-07 18:16 | 51.82277 | 7.96103 | 36005 ft | 450 kts | 102° |
| 2026-05-07 18:16 | 51.81653 | 8.00981 | 36172 ft | 450 kts | 103° |
| 2026-05-07 18:16 | 51.80993 | 8.05927 | 36346 ft | 450 kts | 103° |
| 2026-05-07 18:17 | 51.80313 | 8.10870 | 36528 ft | 451 kts | 103° |
| 2026-05-07 18:17 | 51.79622 | 8.15811 | 36700 ft | 451 kts | 104° |
| 2026-05-07 18:17 | 51.78926 | 8.20758 | 36868 ft | 452 kts | 104° |
| 2026-05-07 18:17 | 51.78231 | 8.25703 | 37041 ft | 452 kts | 104° |
| 2026-05-07 18:18 | 51.77540 | 8.30650 | 37101 ft | 452 kts | 103° |
| 2026-05-07 18:18 | 51.76162 | 8.40547 | 37100 ft | 451 kts | 103° |
| 2026-05-07 18:19 | 51.74773 | 8.50420 | 37109 ft | 451 kts | 103° |
| 2026-05-07 18:19 | 51.73380 | 8.60290 | 37110 ft | 451 kts | 104° |
| 2026-05-07 18:20 | 51.71982 | 8.70148 | 37111 ft | 452 kts | 103° |
| 2026-05-07 18:20 | 51.70578 | 8.80028 | 37109 ft | 452 kts | 104° |
| 2026-05-07 18:21 | 51.69164 | 8.89898 | 37108 ft | 452 kts | 104° |
| 2026-05-07 18:21 | 51.67731 | 8.99773 | 37102 ft | 453 kts | 104° |
| 2026-05-07 18:22 | 51.66272 | 9.09684 | 37080 ft | 456 kts | 104° |
| 2026-05-07 18:22 | 51.64808 | 9.19658 | 37076 ft | 458 kts | 104° |
| 2026-05-07 18:23 | 51.63585 | 9.27960 | 37080 ft | 459 kts | 104° |
| 2026-05-07 18:23 | 51.62094 | 9.37978 | 37072 ft | 462 kts | 104° |
| 2026-05-07 18:24 | 51.60343 | 9.49683 | 37062 ft | 464 kts | 104° |
| 2026-05-07 18:24 | 51.58825 | 9.59781 | 37074 ft | 465 kts | 104° |
| 2026-05-07 18:25 | 51.57548 | 9.68254 | 37074 ft | 466 kts | 104° |
| 2026-05-07 18:25 | 51.56011 | 9.78378 | 37082 ft | 466 kts | 104° |
| 2026-05-07 18:26 | 51.54457 | 9.88496 | 37090 ft | 466 kts | 104° |
| 2026-05-07 18:26 | 51.52892 | 9.98600 | 37097 ft | 466 kts | 105° |
| 2026-05-07 18:27 | 51.51319 | 10.08713 | 37097 ft | 467 kts | 105° |
| 2026-05-07 18:27 | 51.49744 | 10.18806 | 37095 ft | 466 kts | 105° |
| 2026-05-07 18:28 | 51.48159 | 10.28900 | 37097 ft | 467 kts | 105° |
| 2026-05-07 18:28 | 51.46476 | 10.38954 | 37098 ft | 466 kts | 106° |
| 2026-05-07 18:29 | 51.44728 | 10.48964 | 37091 ft | 466 kts | 107° |
| 2026-05-07 18:29 | 51.42979 | 10.58979 | 37092 ft | 466 kts | 106° |
| 2026-05-07 18:30 | 51.41236 | 10.68988 | 37087 ft | 466 kts | 106° |
| 2026-05-07 18:30 | 51.39489 | 10.79000 | 37088 ft | 467 kts | 107° |
| 2026-05-07 18:31 | 51.37730 | 10.88991 | 37097 ft | 467 kts | 107° |
| 2026-05-07 18:31 | 51.35971 | 10.98930 | 37098 ft | 467 kts | 107° |
| 2026-05-07 18:32 | 51.34177 | 11.08972 | 37089 ft | 467 kts | 107° |
| 2026-05-07 18:32 | 51.32388 | 11.18951 | 37098 ft | 467 kts | 107° |
| 2026-05-07 18:33 | 51.30594 | 11.28932 | 37103 ft | 467 kts | 107° |
| 2026-05-07 18:33 | 51.28792 | 11.38902 | 37103 ft | 467 kts | 107° |
| 2026-05-07 18:34 | 51.26978 | 11.48866 | 37105 ft | 467 kts | 107° |
| 2026-05-07 18:34 | 51.25163 | 11.58766 | 37085 ft | 468 kts | 107° |
| 2026-05-07 18:35 | 51.23330 | 11.68752 | 37075 ft | 470 kts | 107° |
| 2026-05-07 18:35 | 51.21477 | 11.78770 | 37078 ft | 471 kts | 107° |
| 2026-05-07 18:36 | 51.19598 | 11.88859 | 37075 ft | 472 kts | 108° |
| 2026-05-07 18:36 | 51.17740 | 11.98800 | 37054 ft | 464 kts | 108° |
| 2026-05-07 18:36 | 51.16827 | 12.03682 | 36794 ft | 457 kts | 108° |
| 2026-05-07 18:37 | 51.15920 | 12.08519 | 36541 ft | 454 kts | 108° |
| 2026-05-07 18:37 | 51.15012 | 12.13328 | 36289 ft | 453 kts | 108° |
| 2026-05-07 18:37 | 51.14101 | 12.18122 | 36039 ft | 451 kts | 108° |
| 2026-05-07 18:37 | 51.13192 | 12.22893 | 35792 ft | 449 kts | 108° |
| 2026-05-07 18:38 | 51.12288 | 12.27638 | 35551 ft | 447 kts | 108° |
| 2026-05-07 18:38 | 51.11389 | 12.32351 | 35305 ft | 444 kts | 108° |
| 2026-05-07 18:38 | 51.10493 | 12.37043 | 35063 ft | 442 kts | 107° |
| 2026-05-07 18:38 | 51.09603 | 12.41705 | 34762 ft | 440 kts | 108° |
| 2026-05-07 18:39 | 51.08703 | 12.46404 | 33684 ft | 450 kts | 107° |
| 2026-05-07 18:39 | 51.07773 | 12.51220 | 32631 ft | 458 kts | 107° |
| 2026-05-07 18:39 | 51.06848 | 12.56001 | 32367 ft | 447 kts | 107° |
| 2026-05-07 18:39 | 51.05942 | 12.60688 | 31872 ft | 441 kts | 106° |
| 2026-05-07 18:40 | 51.05043 | 12.65326 | 31363 ft | 437 kts | 106° |
| 2026-05-07 18:40 | 51.04152 | 12.69910 | 30880 ft | 432 kts | 105° |
| 2026-05-07 18:40 | 51.03268 | 12.74449 | 30407 ft | 428 kts | 105° |
| 2026-05-07 18:40 | 51.02392 | 12.78928 | 29905 ft | 423 kts | 105° |
| 2026-05-07 18:41 | 51.01522 | 12.83375 | 29335 ft | 419 kts | 105° |
| 2026-05-07 18:41 | 51.00665 | 12.87749 | 28594 ft | 411 kts | 106° |
| 2026-05-07 18:41 | 50.99826 | 12.92008 | 28186 ft | 400 kts | 106° |
| 2026-05-07 18:41 | 50.99000 | 12.96196 | 27731 ft | 395 kts | 106° |
| 2026-05-07 18:42 | 50.98180 | 13.00336 | 27293 ft | 391 kts | 106° |
| 2026-05-07 18:42 | 50.97370 | 13.04420 | 26863 ft | 386 kts | 106° |
| 2026-05-07 18:42 | 50.96563 | 13.08468 | 26422 ft | 383 kts | 106° |
| 2026-05-07 18:42 | 50.95764 | 13.12472 | 25978 ft | 379 kts | 106° |
| 2026-05-07 18:43 | 50.94972 | 13.16445 | 25520 ft | 377 kts | 106° |
| 2026-05-07 18:43 | 50.94170 | 13.20379 | 25133 ft | 373 kts | 110° |
| 2026-05-07 18:43 | 50.92934 | 13.23907 | 25043 ft | 362 kts | 127° |
| 2026-05-07 18:43 | 50.91185 | 13.26806 | 24815 ft | 369 kts | 135° |
| 2026-05-07 18:44 | 50.89319 | 13.29615 | 24579 ft | 370 kts | 136° |
| 2026-05-07 18:44 | 50.87457 | 13.32388 | 24338 ft | 365 kts | 136° |
| 2026-05-07 18:44 | 50.85607 | 13.35126 | 24098 ft | 363 kts | 136° |
| 2026-05-07 18:44 | 50.83761 | 13.37852 | 23856 ft | 363 kts | 136° |
| 2026-05-07 18:45 | 50.81921 | 13.40572 | 23621 ft | 361 kts | 136° |
| 2026-05-07 18:45 | 50.80092 | 13.43286 | 23333 ft | 359 kts | 136° |
| 2026-05-07 18:45 | 50.78270 | 13.45989 | 23039 ft | 360 kts | 137° |
| 2026-05-07 18:45 | 50.77564 | 13.47037 | 22953 ft | 361 kts | 137° |
| 2026-05-07 18:46 | 50.75738 | 13.49745 | 22642 ft | 360 kts | 137° |
| 2026-05-07 18:46 | 50.73915 | 13.52445 | 22310 ft | 358 kts | 137° |
| 2026-05-07 18:46 | 50.72102 | 13.55127 | 21986 ft | 357 kts | 137° |
| 2026-05-07 18:46 | 50.70293 | 13.57801 | 21663 ft | 355 kts | 137° |
| 2026-05-07 18:47 | 50.68493 | 13.60457 | 21350 ft | 354 kts | 137° |
| 2026-05-07 18:47 | 50.66699 | 13.63098 | 21033 ft | 352 kts | 137° |
| 2026-05-07 18:47 | 50.64907 | 13.65731 | 20723 ft | 351 kts | 137° |
| 2026-05-07 18:47 | 50.63126 | 13.68346 | 20414 ft | 349 kts | 137° |
| 2026-05-07 18:48 | 50.61354 | 13.70944 | 20111 ft | 347 kts | 137° |
| 2026-05-07 18:48 | 50.59590 | 13.73530 | 19805 ft | 345 kts | 137° |
| 2026-05-07 18:48 | 50.57840 | 13.76096 | 19508 ft | 343 kts | 137° |
| 2026-05-07 18:48 | 50.56098 | 13.78653 | 19212 ft | 342 kts | 138° |
| 2026-05-07 18:49 | 50.54359 | 13.81203 | 18920 ft | 341 kts | 138° |
| 2026-05-07 18:49 | 50.52626 | 13.83739 | 18588 ft | 339 kts | 138° |
| 2026-05-07 18:49 | 50.50901 | 13.86257 | 18225 ft | 339 kts | 138° |
| 2026-05-07 18:49 | 50.49196 | 13.88741 | 17793 ft | 338 kts | 138° |
| 2026-05-07 18:50 | 50.47474 | 13.91244 | 17358 ft | 337 kts | 138° |
| 2026-05-07 18:50 | 50.45752 | 13.93743 | 16932 ft | 337 kts | 138° |
| 2026-05-07 18:50 | 50.44035 | 13.96238 | 16514 ft | 336 kts | 138° |
| 2026-05-07 18:50 | 50.42325 | 13.98723 | 16101 ft | 336 kts | 138° |
| 2026-05-07 18:51 | 50.40610 | 14.01215 | 15681 ft | 335 kts | 138° |
| 2026-05-07 18:51 | 50.38905 | 14.03687 | 15285 ft | 334 kts | 139° |
| 2026-05-07 18:51 | 50.37198 | 14.06154 | 14886 ft | 333 kts | 139° |
| 2026-05-07 18:51 | 50.35496 | 14.08610 | 14500 ft | 332 kts | 139° |
| 2026-05-07 18:52 | 50.33800 | 14.11062 | 14105 ft | 332 kts | 139° |
| 2026-05-07 18:52 | 50.32109 | 14.13504 | 13713 ft | 331 kts | 139° |
| 2026-05-07 18:52 | 50.30418 | 14.15940 | 13276 ft | 330 kts | 139° |
| 2026-05-07 18:52 | 50.28736 | 14.18363 | 12852 ft | 328 kts | 139° |
| 2026-05-07 18:53 | 50.27058 | 14.20778 | 12426 ft | 327 kts | 139° |
| 2026-05-07 18:53 | 50.25389 | 14.23180 | 12012 ft | 325 kts | 139° |
| 2026-05-07 18:53 | 50.23730 | 14.25568 | 11603 ft | 324 kts | 139° |
| 2026-05-07 18:53 | 50.22077 | 14.27942 | 11187 ft | 322 kts | 139° |
| 2026-05-07 18:54 | 50.20450 | 14.30273 | 10792 ft | 312 kts | 139° |
| 2026-05-07 18:54 | 50.18884 | 14.32510 | 10418 ft | 300 kts | 139° |
| 2026-05-07 18:54 | 50.17362 | 14.34683 | 10056 ft | 295 kts | 139° |
| 2026-05-07 18:54 | 50.15861 | 14.36829 | 9658 ft | 289 kts | 140° |
| 2026-05-07 18:55 | 50.14396 | 14.38932 | 9260 ft | 287 kts | 137° |
| 2026-05-07 18:55 | 50.13099 | 14.41305 | 8844 ft | 288 kts | 129° |
| 2026-05-07 18:55 | 50.11897 | 14.43796 | 8457 ft | 287 kts | 128° |
| 2026-05-07 18:55 | 50.10696 | 14.46271 | 8090 ft | 286 kts | 129° |
| 2026-05-07 18:56 | 50.09511 | 14.48701 | 7771 ft | 285 kts | 129° |
| 2026-05-07 18:56 | 50.08311 | 14.51156 | 7452 ft | 285 kts | 129° |
| 2026-05-07 18:56 | 50.07110 | 14.53611 | 7126 ft | 284 kts | 129° |
| 2026-05-07 18:56 | 50.05917 | 14.56052 | 6797 ft | 283 kts | 129° |
| 2026-05-07 18:57 | 50.04732 | 14.58483 | 6450 ft | 280 kts | 128° |
| 2026-05-07 18:57 | 50.03561 | 14.60884 | 6089 ft | 277 kts | 128° |
| 2026-05-07 18:57 | 50.02416 | 14.63231 | 5724 ft | 267 kts | 129° |
| 2026-05-07 18:57 | 50.01306 | 14.65500 | 5370 ft | 262 kts | 129° |
| 2026-05-07 18:58 | 50.00208 | 14.67745 | 5044 ft | 259 kts | 129° |
| 2026-05-07 18:58 | 49.98898 | 14.69599 | 4801 ft | 253 kts | 156° |
| 2026-05-07 18:58 | 49.97254 | 14.70194 | 4544 ft | 240 kts | 187° |
| 2026-05-07 18:58 | 49.95727 | 14.69399 | 4291 ft | 228 kts | 220° |
| 2026-05-07 18:59 | 49.94789 | 14.67537 | 4044 ft | 216 kts | 254° |
| 2026-05-07 18:59 | 49.94623 | 14.65303 | 3983 ft | 203 kts | 272° |
| 2026-05-07 18:59 | 49.94694 | 14.63168 | 3984 ft | 194 kts | 275° |
| 2026-05-07 18:59 | 49.94794 | 14.61093 | 3986 ft | 192 kts | 275° |
| 2026-05-07 19:00 | 49.94897 | 14.59037 | 3987 ft | 191 kts | 275° |
| 2026-05-07 19:00 | 49.95142 | 14.56960 | 3988 ft | 199 kts | 294° |
| 2026-05-07 19:00 | 49.95902 | 14.55151 | 3994 ft | 202 kts | 306° |
| 2026-05-07 19:00 | 49.96758 | 14.53420 | 3993 ft | 201 kts | 307° |
| 2026-05-07 19:01 | 49.97586 | 14.51737 | 3996 ft | 193 kts | 307° |
| 2026-05-07 19:01 | 49.98391 | 14.50092 | 4006 ft | 190 kts | 307° |
| 2026-05-07 19:01 | 49.99187 | 14.48460 | 3989 ft | 189 kts | 307° |
| 2026-05-07 19:01 | 49.99982 | 14.46830 | 3978 ft | 185 kts | 307° |
| 2026-05-07 19:02 | 50.00724 | 14.45308 | 3891 ft | 170 kts | 307° |
| 2026-05-07 19:02 | 50.01413 | 14.43891 | 3735 ft | 163 kts | 307° |
| 2026-05-07 19:02 | 50.02089 | 14.42504 | 3546 ft | 159 kts | 307° |
| 2026-05-07 19:02 | 50.02753 | 14.41139 | 3357 ft | 157 kts | 308° |
| 2026-05-07 19:03 | 50.03410 | 14.39786 | 3150 ft | 155 kts | 309° |
| 2026-05-07 19:03 | 50.04059 | 14.38453 | 2942 ft | 155 kts | 309° |
| 2026-05-07 19:03 | 50.04713 | 14.37105 | 2726 ft | 155 kts | 309° |
| 2026-05-07 19:03 | 50.05344 | 14.35805 | 2522 ft | 145 kts | 310° |
| 2026-05-07 19:04 | 50.05938 | 14.34581 | 2320 ft | 139 kts | 310° |
| 2026-05-07 19:04 | 50.06516 | 14.33388 | 2130 ft | 136 kts | 311° |
| 2026-05-07 19:04 | 50.07085 | 14.32217 | 1935 ft | 135 kts | 310° |
| 2026-05-07 19:04 | 50.07654 | 14.31043 | 1748 ft | 137 kts | 309° |
| 2026-05-07 19:05 | 50.08229 | 14.29856 | 1561 ft | 137 kts | 309° |
| 2026-05-07 19:05 | 50.08790 | 14.28676 | 1344 ft | 134 kts | 309° |
| 2026-05-07 19:05 | 50.09349 | 14.27533 | 1214 ft | 126 kts | 309° |
| 2026-05-07 19:05 | 50.09754 | 14.26704 | 1207 ft | 60 kts | 307° |
| 2026-05-07 19:06 | 50.09968 | 14.26263 | 1197 ft | 47 kts | 306° |
| 2026-05-07 19:06 | 50.10294 | 14.25692 | 1187 ft | 19 kts | 335° |
| 2026-05-07 19:06 | 50.10348 | 14.25661 | 1185 ft | 0 kts | 340° |
| 2026-05-07 19:07 | 50.10360 | 14.25658 | 1184 ft | 6 kts | 355° |
| 2026-05-07 19:07 | 50.10429 | 14.25658 | 1183 ft | 11 kts | 4° |
| 2026-05-07 19:07 | 50.10486 | 14.25743 | 1178 ft | 11 kts | 79° |
| 2026-05-07 19:07 | 50.10498 | 14.25846 | 1177 ft | 6 kts | 79° |
| 2026-05-07 19:08 | 50.10500 | 14.25867 | 1176 ft | 1 kts | 79° |
| 2026-05-07 19:08 | 50.10501 | 14.25874 | 1176 ft | 1 kts | 79° |
| 2026-05-07 19:08 | 50.10502 | 14.25879 | 1176 ft | 0 kts | 77° |
| 2026-05-07 19:08 | 50.10502 | 14.25880 | 1176 ft | 0 kts | 77° |
| 2026-05-07 19:12 | 50.10504 | 14.25892 | 1172 ft | 3 kts | 77° |
| 2026-05-07 19:13 | 50.10509 | 14.25928 | 1174 ft | 4 kts | 77° |
| 2026-05-07 19:13 | 50.10515 | 14.25971 | 1175 ft | 4 kts | 78° |
| 2026-05-07 19:13 | 50.10522 | 14.26021 | 1171 ft | 6 kts | 78° |
| 2026-05-07 19:13 | 50.10534 | 14.26083 | 1170 ft | 6 kts | 64° |
| 2026-05-07 19:14 | 50.10566 | 14.26140 | 1172 ft | 7 kts | 35° |
| 2026-05-07 19:14 | 50.10602 | 14.26179 | 1172 ft | 5 kts | 34° |
| 2026-05-07 19:14 | 50.10628 | 14.26207 | 1169 ft | 2 kts | 34° |
| 2026-05-07 19:14 | 50.10629 | 14.26208 | 1169 ft | 0 kts | 34° |